ADDS METAR Data INFO
IDs: Format: Raw Decoded Include TAF

Data at: 0359 UTC 11 Dec 2017

K40J 110355Z AUTO 00000KT 3SM BR CLR 02/01 A3033 RMK AO2 T00150010 401321020
K40J 110335Z AUTO 00000KT 5SM BR CLR 02/01 A3033 RMK AO2 T00150009
K40J 110315Z AUTO 00000KT 10SM CLR 02/02 A3033 RMK AO2 T00220015
K40J 110255Z AUTO 00000KT 10SM CLR 02/02 A3033 RMK AO2 T00240015
K40J 110235Z AUTO 00000KT 10SM CLR 02/02 A3033 RMK AO2 T00230016
K40J 110215Z AUTO 00000KT 10SM CLR 03/02 A3033 RMK AO2 T00270020
K40J 110155Z AUTO 00000KT 10SM CLR 03/03 A3033 RMK AO2 T00310025
K40J 110135Z AUTO 00000KT 10SM CLR 03/02 A3032 RMK AO2 T00290022
K40J 110115Z AUTO 00000KT 10SM CLR 04/03 A3032 RMK AO2 T00370026
K40J 110055Z AUTO 00000KT 10SM CLR 04/03 A3031 RMK AO2 T00400025
K40J 110035Z AUTO 00000KT 10SM CLR 04/02 A3032 RMK AO2 T00410023
K40J 110015Z AUTO 00000KT 10SM CLR 05/03 A3031 RMK AO2 T00490025
K40J 102355Z AUTO 00000KT 10SM CLR 06/02 A3031 RMK AO2 T00630024 10132 20059
K40J 102335Z AUTO 00000KT 10SM CLR 06/02 A3030 RMK AO2 T00600021
K40J 102315Z AUTO 00000KT 10SM CLR 06/02 A3030 RMK AO2 T00610020
K40J 102255Z AUTO 24003KT 10SM CLR 07/02 A3030 RMK AO2 T00660019
K40J 102235Z AUTO 21003KT 10SM CLR 08/02 A3029 RMK AO2 T00830020
K40J 102215Z AUTO 23005KT 10SM CLR 10/02 A3029 RMK AO2 T00980018
K40J 102155Z AUTO 23005KT 10SM CLR 11/02 A3029 RMK AO2 T01080017
K40J 102135Z AUTO 22007KT 10SM CLR 11/02 A3029 RMK AO2 T01110015
K40J 102115Z AUTO 21006KT 10SM CLR 12/01 A3028 RMK AO2 T01150013
K40J 102055Z AUTO 23007KT 10SM CLR 12/01 A3028 RMK AO2 T01200012
K40J 102035Z AUTO 24006KT 10SM CLR 13/01 A3028 RMK AO2 T01250007
K40J 102015Z AUTO 22008KT 10SM CLR 13/00 A3028 RMK AO2 T01260004
K40J 101955Z AUTO 20006KT 10SM CLR 13/00 A3028 RMK AO2 T01270004
K40J 101935Z AUTO 27007KT 10SM CLR 13/M03 A3028 RMK AO2 T01301034
K40J 101915Z AUTO 30006KT 10SM CLR 13/M04 A3029 RMK AO2 T01281041
K40J 101855Z AUTO 24003KT 10SM CLR 13/M02 A3030 RMK AO2 T01271024
K40J 101835Z AUTO 25005KT 10SM CLR 12/M03 A3030 RMK AO2 T01181029
K40J 101815Z AUTO 00000KT 10SM CLR 11/M02 A3031 RMK AO2 T01131024
K40J 101755Z AUTO 00000KT 10SM CLR 11/M02 A3031 RMK AO2 60016 T01081016 10108 21020
K40J 101735Z AUTO 36004KT 10SM CLR 11/M01 A3033 RMK AO2 T01051009
K40J 101715Z AUTO 32003KT 10SM CLR 10/M01 A3034 RMK AO2 T00991009
K40J 101655Z AUTO 00000KT 10SM CLR 09/M01 A3034 RMK AO2 T00891009
K40J 101635Z AUTO 35004KT 10SM CLR 08/M01 A3035 RMK AO2 T00821012
K40J 101615Z AUTO 00000KT 10SM CLR 08/M01 A3036 RMK AO2 T00761011
K40J 101555Z AUTO 00000KT 10SM CLR 07/M01 A3036 RMK AO2 P0001 T00721009
K40J 101535Z AUTO 00000KT 10SM CLR 07/M01 A3036 RMK AO2 P0001 T00651009
K40J 101515Z AUTO 03005KT 10SM CLR 06/M01 A3037 RMK AO2 P0001 T00571009
K40J 101455Z AUTO 04003KT 10SM CLR 05/M01 A3037 RMK AO2 P0008 60015 T00491010
K40J 101435Z AUTO 02006KT 10SM CLR 05/00 A3037 RMK AO2 P0006 T00451005
K40J 101415Z AUTO 01005KT 10SM CLR 03/00 A3036 RMK AO2 P0003 T00341001
K40J 101355Z AUTO 34005KT 10SM CLR 03/00 A3035 RMK AO2 P0007 T00270000
K40J 101335Z AUTO 00000KT 10SM CLR 01/00 A3034 RMK AO2 P0003 T00051005
K40J 101315Z AUTO 00000KT 10SM CLR M01/M02 A3034 RMK AO2 T10061016
K40J 101255Z AUTO 00000KT 10SM CLR M01/M02 A3035 RMK AO2 T10151025
K40J 101235Z AUTO 00000KT 10SM CLR M01/M02 A3034 RMK AO2 T10131024
K40J 101215Z AUTO 00000KT 10SM CLR M01/M02 A3034 RMK AO2 T10061022
K40J 101155Z AUTO 00000KT 10SM CLR 00/M02 A3032 RMK AO2 70009 T00001021 10004 21007
K40J 101135Z AUTO 00000KT 10SM CLR M01/M03 A3031 RMK AO2 T10061027
K40J 101115Z AUTO 33003KT 10SM CLR 00/M02 A3031 RMK AO2 T00001022
K40J 101055Z AUTO 33004KT 10SM CLR 00/M02 A3030 RMK AO2 T10021023
K40J 101035Z AUTO 33003KT 10SM CLR 00/M02 A3030 RMK AO2 T10011023
K40J 101015Z AUTO 00000KT 10SM CLR 00/M02 A3030 RMK AO2 T10011025
K40J 100955Z AUTO 31003KT 10SM CLR 00/M02 A3029 RMK AO2 T00011020
K40J 100935Z AUTO 30003KT 10SM CLR 00/M02 A3029 RMK AO2 T00021022
K40J 100915Z AUTO 00000KT 10SM CLR 00/M02 A3029 RMK AO2 T10011024
K40J 100855Z AUTO 27003KT 10SM CLR 00/M03 A3029 RMK AO2 T10011026
K40J 100835Z AUTO 00000KT 10SM CLR 00/M03 A3029 RMK AO2 T00001026
K40J 100815Z AUTO 28003KT 10SM CLR 00/M03 A3028 RMK AO2 T00001027
K40J 100755Z AUTO 27004KT 10SM CLR 00/M02 A3028 RMK AO2 T00021025
K40J 100735Z AUTO 27003KT 10SM CLR 00/M02 A3027 RMK AO2 T00031022
K40J 100715Z AUTO 28003KT 10SM CLR 00/M02 A3027 RMK AO2 T00001018
K40J 100655Z AUTO 00000KT 10SM CLR 00/M02 A3026 RMK AO2 T00021016
K40J 100635Z AUTO 25003KT 10SM CLR 00/M02 A3026 RMK AO2 T10021023
K40J 100615Z AUTO 00000KT 10SM CLR 00/M02 A3026 RMK AO2 T00001022
K40J 100555Z AUTO 00000KT 10SM CLR 00/M02 A3026 RMK AO2 60002 T00011024 10036 20001
K40J 100535Z AUTO 30003KT 10SM CLR 01/M02 A3025 RMK AO2 T00061020
K40J 100515Z AUTO 29004KT 10SM CLR 02/M02 A3026 RMK AO2 T00151020
K40J 100455Z AUTO 31004KT 10SM CLR 01/M02 A3025 RMK AO2 P0001 T00121020
K40J 100435Z AUTO 31005KT 10SM CLR 01/M02 A3025 RMK AO2 P0001 T00131021
K40J 100415Z AUTO 30005KT 10SM CLR 02/M02 A3024 RMK AO2 P0001 T00241022
K40J 100355Z AUTO 30004KT 10SM CLR 02/M02 A3024 RMK AO2 T00211020 401010014
K40J 100335Z AUTO 31005KT 10SM CLR 02/M02 A3023 RMK AO2 T00221019
K40J 100315Z AUTO 30006KT 10SM CLR 03/M02 A3022 RMK AO2 T00251018
K40J 100255Z AUTO 30005KT 10SM CLR 03/M02 A3021 RMK AO2 60001 T00271016
K40J 100235Z AUTO 30005KT 10SM CLR 02/M01 A3020 RMK AO2 T00221009
K40J 100215Z AUTO 31003KT 10SM CLR 02/00 A3020 RMK AO2 T00170000
K40J 100155Z AUTO 00000KT 10SM CLR 02/00 A3018 RMK AO2 P0001 T00160004
K40J 100135Z AUTO 00000KT 10SM CLR 02/00 A3018 RMK AO2 P0001 T00150004
K40J 100115Z AUTO 00000KT 10SM CLR 02/00 A3017 RMK AO2 T00200003
K40J 100055Z AUTO 00000KT 10SM CLR 02/00 A3016 RMK AO2 T00200000
K40J 100035Z AUTO 00000KT 10SM CLR 03/00 A3015 RMK AO2 T00290003
K40J 100015Z AUTO 00000KT 10SM CLR 03/00 A3014 RMK AO2 T00300001
K40J 092355Z AUTO 00000KT 10SM CLR 04/00 A3013 RMK AO2 P0001 60004 T00381002 10101 20038
K40J 092335Z AUTO 00000KT 10SM CLR 05/M01 A3012 RMK AO2 P0001 T00461009
K40J 092315Z AUTO 28003KT 10SM CLR 06/M01 A3012 RMK AO2 T00551014
K40J 092255Z AUTO 30004KT 10SM CLR 06/M02 A3011 RMK AO2 T00581018
K40J 092235Z AUTO 31006KT 10SM CLR 07/M03 A3010 RMK AO2 T00721026
K40J 092215Z AUTO 30008KT 10SM CLR 08/00 A3008 RMK AO2 T00811003
K40J 092155Z AUTO 29007KT 10SM CLR 09/00 A3007 RMK AO2 P0001 T00901002
K40J 092135Z AUTO 30009KT 10SM CLR 09/00 A3006 RMK AO2 T00931003
K40J 092115Z AUTO 31009G15KT 10SM CLR 10/00 A3005 RMK AO2 T00950000
K40J 092055Z AUTO 31008KT 10SM CLR 10/01 A3005 RMK AO2 P0001 60002 T00960010
K40J 092035Z AUTO 29011G16KT 10SM CLR 10/01 A3005 RMK AO2 P0001 T00960012
K40J 092015Z AUTO 31008G17KT 10SM CLR 10/02 A3004 RMK AO2 T00950017
K40J 091955Z AUTO 28010KT 10SM SCT024 09/02 A3003 RMK AO2 P0001 T00940023
K40J 091935Z AUTO 30009G15KT 10SM SCT024 09/03 A3004 RMK AO2 P0001 T00930028
K40J 091915Z AUTO 32009KT 10SM SCT025 09/03 A3004 RMK AO2 T00920027
K40J 091855Z AUTO 33009G18KT 10SM BKN025 09/03 A3003 RMK AO2 T00940028
K40J 091835Z AUTO 31011G16KT 10SM BKN025 10/03 A3004 RMK AO2 T01000031
K40J 091815Z AUTO 29010G19KT 10SM BKN025 09/03 A3005 RMK AO2 T00880030
K40J 091755Z AUTO 29011KT 10SM SCT020 OVC028 09/04 A3005 RMK AO2 60003 T00880035 10088 20066
K40J 091735Z AUTO 29009G14KT 10SM BKN019 OVC024 08/04 A3005 RMK AO2 T00810038
K40J 091715Z AUTO 28010KT 10SM OVC019 08/04 A3006 RMK AO2 T00800038
K40J 091655Z AUTO 30009G14KT 10SM OVC016 08/04 A3006 RMK AO2 P0001 T00790042
K40J 091635Z AUTO 32010KT 10SM OVC012 08/05 A3006 RMK AO2 P0001 T00760046
K40J 091615Z AUTO 28009KT 10SM OVC010 07/05 A3005 RMK AO2 T00700045